Eagleton, Wisconsin
Current Conditions -  °F | °C
As of 1:55 AM on Wednesday 22 Oct 2014 (Local Time) from KY23 Reporting Station
Clear Clear  
Wind Chill: 34°   Ceiling: Unl
Heat Index: 38°   Visibility: 10mi
Dew Point: 35°   Wind: 5mph
Humidity: 88%   Direction: 120°ESE
Pressure: 30.24"   Gusts: NA
Location:  45.1062°N, 91.4948°W
Report Text: KY23 220655Z AUTO 12004KT 10SM CLR 03/02 A3024 RMK AO2 T00330015
Loading
Personal Weather Stations






























Interactive Weather Map
Tropical Storm Tracking
New forecast layout! Learn more

10-Day Weather Forecast

Advertisements
Track Severe Weather on mobile